createdAt,value
2019-01-28T00:02:23.220Z,19.70
2019-01-28T00:04:54.274Z,19.60
2019-01-28T00:07:24.837Z,18.87
2019-01-28T00:09:55.445Z,19.13
2019-01-28T00:12:26.882Z,18.37
2019-01-28T00:14:57.512Z,18.13
2019-01-28T00:17:28.173Z,18.93
2019-01-28T00:19:58.776Z,19.37
2019-01-28T00:22:29.441Z,18.93
2019-01-28T00:25:00.003Z,20.03
2019-01-28T00:27:30.560Z,19.83
2019-01-28T00:30:01.180Z,18.70
2019-01-28T00:32:31.773Z,19.47
2019-01-28T00:35:02.417Z,19.80
2019-01-28T00:37:33.034Z,18.60
2019-01-28T00:40:04.948Z,18.87
2019-01-28T00:42:36.015Z,18.63
2019-01-28T00:45:12.982Z,19.37
2019-01-28T00:47:43.614Z,19.23
2019-01-28T00:50:14.468Z,18.93
2019-01-28T00:52:45.062Z,20.40
2019-01-28T00:55:15.705Z,20.23
2019-01-28T00:57:46.420Z,18.33
2019-01-28T01:00:25.710Z,19.37
2019-01-28T01:02:56.355Z,18.57
2019-01-28T01:05:27.887Z,19.23
2019-01-28T01:07:58.634Z,19.00
2019-01-28T01:10:29.207Z,18.77
2019-01-28T01:13:00.577Z,18.63
2019-01-28T01:15:31.589Z,18.67
2019-01-28T01:18:02.145Z,17.70
2019-01-28T01:20:32.776Z,17.97
2019-01-28T01:23:03.416Z,19.03
2019-01-28T01:25:34.417Z,18.43
2019-01-28T01:28:05.075Z,17.17
2019-01-28T01:30:35.794Z,18.80
2019-01-28T01:33:06.469Z,19.13
2019-01-28T01:35:36.975Z,17.83
2019-01-28T01:38:07.622Z,17.10
2019-01-28T01:40:38.261Z,16.40
2019-01-28T01:43:08.886Z,17.60
2019-01-28T01:45:39.846Z,17.27
2019-01-28T01:48:10.315Z,16.23
2019-01-28T01:50:40.870Z,17.77
2019-01-28T01:53:11.707Z,16.90
2019-01-28T01:55:42.366Z,16.60
2019-01-28T01:58:13.120Z,17.30
2019-01-28T02:00:43.804Z,17.57
2019-01-28T02:03:14.392Z,17.77
2019-01-28T02:05:45.024Z,16.13
2019-01-28T02:08:15.569Z,17.67
2019-01-28T02:10:46.195Z,17.00
2019-01-28T02:13:17.644Z,17.60
2019-01-28T02:15:49.395Z,17.37
2019-01-28T02:18:19.864Z,16.90
2019-01-28T02:20:50.432Z,17.37
2019-01-28T02:23:21.077Z,17.70
2019-01-28T02:25:51.708Z,17.63
2019-01-28T02:28:22.740Z,16.30
2019-01-28T02:30:53.887Z,17.37
2019-01-28T02:33:24.626Z,17.57
2019-01-28T02:35:55.273Z,17.60
2019-01-28T02:38:25.961Z,16.53
2019-01-28T02:40:56.561Z,16.73
2019-01-28T02:43:27.222Z,16.67
2019-01-28T02:45:57.833Z,16.53
2019-01-28T02:48:28.501Z,17.10
2019-01-28T02:50:58.981Z,15.63
2019-01-28T02:53:29.631Z,17.30
2019-01-28T02:56:00.293Z,16.43
2019-01-28T02:58:30.863Z,15.77
2019-01-28T03:01:01.445Z,15.67
2019-01-28T03:03:38.085Z,14.70
2019-01-28T03:06:08.681Z,15.63
2019-01-28T03:08:39.360Z,15.77
2019-01-28T03:11:10.526Z,15.27
2019-01-28T03:13:42.528Z,14.77
2019-01-28T03:16:13.124Z,15.73
2019-01-28T03:18:43.832Z,14.53
2019-01-28T03:21:14.525Z,14.50
2019-01-28T03:23:45.101Z,14.40
2019-01-28T03:26:15.806Z,14.90
2019-01-28T03:28:46.368Z,14.70
2019-01-28T03:31:17.025Z,15.23
2019-01-28T03:33:50.948Z,15.93
2019-01-28T03:36:21.611Z,16.20
2019-01-28T03:38:52.185Z,15.50
2019-01-28T03:41:22.996Z,14.17
2019-01-28T03:43:53.677Z,14.93
2019-01-28T03:46:24.276Z,15.47
2019-01-28T03:48:54.882Z,14.80
2019-01-28T03:51:25.552Z,15.83
2019-01-28T03:53:56.269Z,14.50
2019-01-28T03:56:26.919Z,16.03
2019-01-28T03:58:57.928Z,14.03
2019-01-28T04:01:28.508Z,14.87
2019-01-28T04:03:59.362Z,14.77
2019-01-28T04:06:29.955Z,14.23
2019-01-28T04:09:00.537Z,12.60
2019-01-28T04:11:31.123Z,12.30
2019-01-28T04:14:02.548Z,14.63
2019-01-28T04:16:33.068Z,14.53
2019-01-28T04:19:05.268Z,14.60
2019-01-28T04:21:35.900Z,14.10
2019-01-28T04:24:06.618Z,13.30
2019-01-28T04:26:37.215Z,12.97
2019-01-28T04:29:08.520Z,12.93
2019-01-28T04:31:39.693Z,12.90
2019-01-28T04:34:10.287Z,12.57
2019-01-28T04:36:40.827Z,13.27
2019-01-28T04:39:11.393Z,13.07
2019-01-28T04:41:41.957Z,12.87
2019-01-28T04:44:12.526Z,14.67
2019-01-28T04:46:42.999Z,13.80
2019-01-28T04:49:13.670Z,12.97
2019-01-28T04:51:44.211Z,12.57
2019-01-28T04:54:14.710Z,12.03
2019-01-28T04:56:45.355Z,13.27
2019-01-28T04:59:15.947Z,13.27
2019-01-28T05:01:46.566Z,12.43
2019-01-28T05:04:17.181Z,13.43
2019-01-28T05:06:47.959Z,14.43
2019-01-28T05:09:18.492Z,12.63
2019-01-28T05:11:49.037Z,12.20
2019-01-28T05:14:20.807Z,13.27
2019-01-28T05:16:51.431Z,12.73
2019-01-28T05:19:22.258Z,12.03
2019-01-28T05:21:52.697Z,12.03
2019-01-28T05:24:23.966Z,11.37
2019-01-28T05:26:57.706Z,10.50
2019-01-28T05:29:28.306Z,12.30
2019-01-28T05:31:59.105Z,12.63
2019-01-28T05:34:29.660Z,12.50
2019-01-28T05:37:00.084Z,11.63
2019-01-28T05:39:32.263Z,12.63
2019-01-28T05:42:03.289Z,11.40
2019-01-28T05:44:33.879Z,11.13
2019-01-28T05:47:04.455Z,10.87
2019-01-28T05:49:35.054Z,10.10
2019-01-28T05:52:05.624Z,9.47
2019-01-28T05:54:37.768Z,9.30
2019-01-28T05:57:08.778Z,10.70
2019-01-28T05:59:40.225Z,9.97
2019-01-28T06:02:10.742Z,11.87
2019-01-28T06:04:42.809Z,11.77
2019-01-28T06:07:13.378Z,11.00
2019-01-28T06:09:43.901Z,11.27
2019-01-28T06:12:14.428Z,11.33
2019-01-28T06:14:45.744Z,10.97
2019-01-28T06:17:16.230Z,11.23
2019-01-28T06:19:46.931Z,12.17
2019-01-28T06:22:17.386Z,11.57
2019-01-28T06:24:47.940Z,16.10
2019-01-28T06:27:18.451Z,15.73
2019-01-28T06:29:49.192Z,16.67
2019-01-28T06:32:19.820Z,14.07
2019-01-28T06:34:50.610Z,12.30
2019-01-28T06:37:21.135Z,12.53
2019-01-28T06:39:51.844Z,11.27
2019-01-28T06:42:22.482Z,11.37
2019-01-28T06:44:53.042Z,10.87
2019-01-28T06:47:24.244Z,12.40
2019-01-28T06:49:54.845Z,10.20
2019-01-28T06:52:25.541Z,10.93
2019-01-28T06:54:56.098Z,10.60
2019-01-28T06:57:28.392Z,9.90
2019-01-28T06:59:59.356Z,10.93
2019-01-28T07:02:29.876Z,11.07
2019-01-28T07:05:00.599Z,10.17
2019-01-28T07:07:31.079Z,11.23
2019-01-28T07:10:01.654Z,10.50
2019-01-28T07:12:32.266Z,10.37
2019-01-28T07:15:03.088Z,9.00
2019-01-28T07:17:33.643Z,9.47
2019-01-28T07:20:07.047Z,9.30
2019-01-28T07:22:37.517Z,8.50
2019-01-28T07:25:08.331Z,9.33
2019-01-28T07:27:40.488Z,9.13
2019-01-28T07:30:15.894Z,8.90
2019-01-28T07:32:46.459Z,9.23
2019-01-28T07:35:17.130Z,10.03
2019-01-28T07:37:47.723Z,9.57
2019-01-28T07:40:18.429Z,9.00
2019-01-28T07:42:50.654Z,9.37
2019-01-28T07:45:31.404Z,10.03
2019-01-28T07:48:04.505Z,10.10
2019-01-28T07:50:34.246Z,9.80
2019-01-28T07:53:05.488Z,10.67
2019-01-28T07:55:36.408Z,9.37
2019-01-28T07:58:06.998Z,9.33
2019-01-28T08:00:37.655Z,8.97
2019-01-28T08:03:08.110Z,9.07
2019-01-28T08:05:38.830Z,8.70
2019-01-28T08:08:09.456Z,8.23
2019-01-28T08:10:40.083Z,8.17
2019-01-28T08:13:10.891Z,8.77
2019-01-28T08:15:42.300Z,10.17
2019-01-28T08:18:12.795Z,9.13
2019-01-28T08:20:43.347Z,9.13
2019-01-28T08:23:13.947Z,8.60
2019-01-28T08:25:44.563Z,8.70
2019-01-28T08:28:15.164Z,9.17
2019-01-28T08:30:45.887Z,8.37
2019-01-28T08:33:16.333Z,8.43
2019-01-28T08:35:47.120Z,8.00
2019-01-28T08:38:20.716Z,8.63
2019-01-28T08:40:51.693Z,7.80
2019-01-28T08:43:22.309Z,7.10
2019-01-28T08:45:53.393Z,8.40
2019-01-28T08:48:24.020Z,8.07
2019-01-28T08:50:54.469Z,8.40
2019-01-28T08:53:25.094Z,7.97
2019-01-28T08:55:55.715Z,8.30
2019-01-28T08:58:26.277Z,8.07
2019-01-28T09:00:56.975Z,8.23
2019-01-28T09:03:27.538Z,8.40
2019-01-28T09:05:58.168Z,8.60
2019-01-28T09:08:28.771Z,8.57
2019-01-28T09:11:00.667Z,9.10
2019-01-28T09:13:31.296Z,7.87
2019-01-28T09:16:02.752Z,9.67
2019-01-28T09:18:33.305Z,9.43
2019-01-28T09:21:04.067Z,8.60
2019-01-28T09:23:35.036Z,9.37
2019-01-28T09:26:06.654Z,9.13
2019-01-28T09:28:37.304Z,9.43
2019-01-28T09:31:08.044Z,9.00
2019-01-28T09:33:38.642Z,8.77
2019-01-28T09:36:09.596Z,8.47
2019-01-28T09:38:40.210Z,9.13
2019-01-28T09:41:11.716Z,9.33
2019-01-28T09:43:46.162Z,9.70
2019-01-28T09:46:17.687Z,9.63
2019-01-28T09:48:48.148Z,9.50
2019-01-28T09:51:18.731Z,11.10
2019-01-28T09:53:49.340Z,10.90
2019-01-28T09:56:19.999Z,11.73
2019-01-28T09:58:50.480Z,10.63
2019-01-28T10:01:21.250Z,11.63
2019-01-28T10:03:52.229Z,10.87
2019-01-28T10:06:22.891Z,10.50
2019-01-28T10:08:53.495Z,10.03
2019-01-28T10:11:24.107Z,9.63
2019-01-28T10:13:55.760Z,9.10
2019-01-28T10:16:28.131Z,9.37
2019-01-28T10:18:58.657Z,9.53
2019-01-28T10:21:29.284Z,10.33
2019-01-28T10:23:59.812Z,8.77
2019-01-28T10:26:30.393Z,9.20
2019-01-28T10:29:00.881Z,8.57
2019-01-28T10:31:31.446Z,10.17
2019-01-28T10:34:01.936Z,9.20
2019-01-28T10:36:34.230Z,9.43
2019-01-28T10:39:09.552Z,8.93
2019-01-28T10:41:40.288Z,9.07
2019-01-28T10:44:11.025Z,9.80
2019-01-28T10:46:41.781Z,9.57
2019-01-28T10:49:12.398Z,10.03
2019-01-28T10:51:43.067Z,10.43
2019-01-28T10:54:13.662Z,10.20
2019-01-28T10:56:44.252Z,10.43
2019-01-28T10:59:14.786Z,9.77
2019-01-28T11:01:46.134Z,10.60
2019-01-28T11:04:16.776Z,13.80
2019-01-28T11:06:47.372Z,12.40
2019-01-28T11:09:17.894Z,10.97
2019-01-28T11:11:48.602Z,11.23
2019-01-28T11:14:19.256Z,10.33
2019-01-28T11:16:50.702Z,11.40
2019-01-28T11:19:21.365Z,12.20
2019-01-28T11:21:53.040Z,11.90
2019-01-28T11:24:23.704Z,12.40
2019-01-28T11:26:55.981Z,12.10
2019-01-28T11:29:26.438Z,12.93
2019-01-28T11:31:57.106Z,14.23
2019-01-28T11:34:27.633Z,13.57
2019-01-28T11:36:58.340Z,11.83
2019-01-28T11:39:28.983Z,13.00
2019-01-28T11:41:59.671Z,13.33
2019-01-28T11:44:30.105Z,12.47
2019-01-28T11:47:00.599Z,13.07
2019-01-28T11:49:31.650Z,12.57
2019-01-28T11:52:02.210Z,12.67
2019-01-28T11:54:32.831Z,12.80
2019-01-28T11:57:03.408Z,11.60
2019-01-28T11:59:34.039Z,12.73
2019-01-28T12:02:04.689Z,13.27
2019-01-28T12:04:35.259Z,14.30
2019-01-28T12:07:06.165Z,14.33
2019-01-28T12:09:36.690Z,14.30
2019-01-28T12:12:07.314Z,13.93
2019-01-28T12:14:38.027Z,13.67
2019-01-28T12:17:09.472Z,14.07
2019-01-28T12:19:39.865Z,14.17
2019-01-28T12:22:11.248Z,13.70
2019-01-28T12:24:43.121Z,13.53
2019-01-28T12:27:15.329Z,14.50
2019-01-28T12:29:47.952Z,13.47
2019-01-28T12:32:19.158Z,14.23
2019-01-28T12:34:50.641Z,13.37
2019-01-28T12:37:22.082Z,13.70
2019-01-28T12:39:52.528Z,14.23
2019-01-28T12:42:23.171Z,17.47
2019-01-28T12:44:53.714Z,16.90
2019-01-28T12:47:24.433Z,18.70
2019-01-28T12:49:54.897Z,18.80
2019-01-28T12:52:25.566Z,18.33
2019-01-28T12:54:56.075Z,19.80
2019-01-28T12:57:26.724Z,19.47
2019-01-28T12:59:57.384Z,18.77
2019-01-28T13:02:29.836Z,18.83
2019-01-28T13:05:00.470Z,18.77
2019-01-28T13:07:32.780Z,16.37
2019-01-28T13:10:05.454Z,16.00
2019-01-28T13:12:36.044Z,15.97
2019-01-28T13:15:11.123Z,17.50
2019-01-28T13:17:43.081Z,14.67
2019-01-28T13:20:14.072Z,15.60
2019-01-28T13:22:45.142Z,15.00
2019-01-28T13:25:19.742Z,15.87
2019-01-28T13:27:50.403Z,16.10
2019-01-28T13:30:27.903Z,16.40
2019-01-28T13:33:00.018Z,14.13
2019-01-28T13:35:30.636Z,15.13
2019-01-28T13:38:01.424Z,15.17
2019-01-28T13:40:32.114Z,14.57
2019-01-28T13:43:03.551Z,14.30
2019-01-28T13:45:34.266Z,15.33
2019-01-28T13:48:08.209Z,14.73
2019-01-28T13:50:38.823Z,14.73
2019-01-28T13:53:09.656Z,15.47
2019-01-28T13:55:40.266Z,16.27
2019-01-28T13:58:10.877Z,15.33
2019-01-28T14:00:41.896Z,16.00
2019-01-28T14:03:14.259Z,16.93
2019-01-28T14:05:53.432Z,16.13
2019-01-28T14:08:25.789Z,17.00
2019-01-28T14:10:58.625Z,16.67
2019-01-28T14:13:33.715Z,16.80
2019-01-28T14:16:05.516Z,17.00
2019-01-28T14:18:36.895Z,17.13
2019-01-28T14:21:08.346Z,16.90
2019-01-28T14:23:38.982Z,17.77
2019-01-28T14:26:09.571Z,17.73
2019-01-28T14:28:40.072Z,18.23
2019-01-28T14:31:10.513Z,18.00
2019-01-28T14:33:41.171Z,18.17
2019-01-28T14:36:11.761Z,17.60
2019-01-28T14:38:42.407Z,18.53
2019-01-28T14:41:12.850Z,17.53
2019-01-28T14:43:43.420Z,18.10
2019-01-28T14:46:13.966Z,20.10
2019-01-28T14:48:49.342Z,21.10
2019-01-28T14:51:16.752Z,20.97
2019-01-28T14:53:47.390Z,23.63
2019-01-28T14:56:17.973Z,21.07
2019-01-28T14:58:49.374Z,20.90
2019-01-28T15:01:19.955Z,20.63
2019-01-28T15:03:50.644Z,20.07
2019-01-28T15:06:21.237Z,20.67
2019-01-28T15:08:51.708Z,21.03
2019-01-28T15:11:22.350Z,20.90
2019-01-28T15:13:52.912Z,21.13
2019-01-28T15:16:23.411Z,21.03
2019-01-28T15:18:55.573Z,20.83
2019-01-28T15:21:26.203Z,21.40
2019-01-28T15:23:57.366Z,22.67
2019-01-28T15:26:28.017Z,22.50
2019-01-28T15:28:58.619Z,22.90
2019-01-28T15:31:29.247Z,21.70
2019-01-28T15:33:59.894Z,22.20
2019-01-28T15:36:30.436Z,23.80
2019-01-28T15:39:01.001Z,23.40
2019-01-28T15:41:31.622Z,22.70
2019-01-28T15:44:04.006Z,22.10
2019-01-28T15:46:34.366Z,22.13
2019-01-28T15:49:05.306Z,23.20
2019-01-28T15:51:36.250Z,24.63
2019-01-28T15:54:06.851Z,24.33
2019-01-28T15:56:37.306Z,25.63
2019-01-28T15:59:09.562Z,24.10
2019-01-28T16:01:40.177Z,24.10
2019-01-28T16:04:10.779Z,23.43
2019-01-28T16:06:42.143Z,24.53
2019-01-28T16:09:12.837Z,23.83
2019-01-28T16:11:43.437Z,25.23
2019-01-28T16:14:13.912Z,25.83
2019-01-28T16:16:44.460Z,27.33
2019-01-28T16:19:16.755Z,24.40
2019-01-28T16:21:47.366Z,24.23
2019-01-28T16:24:19.258Z,25.20
2019-01-28T16:26:49.855Z,24.87
2019-01-28T16:29:21.380Z,23.43
2019-01-28T16:31:51.999Z,23.43
2019-01-28T16:34:22.540Z,23.37
2019-01-28T16:36:53.017Z,22.13
2019-01-28T16:39:23.623Z,21.93
2019-01-28T16:41:54.106Z,21.40
2019-01-28T16:44:24.800Z,21.67
2019-01-28T16:46:55.330Z,23.97
2019-01-28T16:49:25.917Z,21.90
2019-01-28T16:51:56.356Z,21.03
2019-01-28T16:54:27.112Z,22.00
2019-01-28T16:56:57.733Z,22.50
2019-01-28T16:59:32.505Z,22.07
2019-01-28T17:02:03.021Z,22.37
2019-01-28T17:04:33.582Z,24.30
2019-01-28T17:07:04.104Z,28.60
2019-01-28T17:09:34.763Z,29.33
2019-01-28T17:12:05.341Z,26.27
2019-01-28T17:14:35.750Z,28.23
2019-01-28T17:17:06.344Z,25.37
2019-01-28T17:19:38.525Z,27.70
2019-01-28T17:22:09.153Z,28.23
2019-01-28T17:24:39.687Z,24.80
2019-01-28T17:27:10.323Z,24.83
2019-01-28T17:29:40.970Z,25.80
2019-01-28T17:32:11.599Z,25.40
2019-01-28T17:34:42.101Z,25.83
2019-01-28T17:37:12.723Z,25.67
2019-01-28T17:39:43.334Z,24.37
2019-01-28T17:42:13.864Z,24.43
2019-01-28T17:44:44.494Z,24.77
2019-01-28T17:47:16.774Z,25.60
2019-01-28T17:49:47.197Z,24.67
2019-01-28T17:52:18.831Z,26.17
2019-01-28T17:54:49.463Z,25.17
2019-01-28T17:57:20.046Z,26.00
2019-01-28T17:59:50.565Z,26.70
2019-01-28T18:02:21.075Z,26.27
2019-01-28T18:04:52.368Z,27.90
2019-01-28T18:07:22.913Z,26.53
2019-01-28T18:09:53.383Z,24.47
2019-01-28T18:12:24.227Z,24.47
2019-01-28T18:14:54.647Z,25.23
2019-01-28T18:17:25.051Z,24.57
2019-01-28T18:19:56.625Z,27.20
2019-01-28T18:22:28.658Z,26.37
2019-01-28T18:25:00.262Z,27.83
2019-01-28T18:27:30.793Z,26.77
2019-01-28T18:30:01.264Z,25.60
2019-01-28T18:32:31.833Z,25.13
2019-01-28T18:35:03.106Z,26.93
2019-01-28T18:37:34.858Z,25.97
2019-01-28T18:40:13.577Z,25.53
2019-01-28T18:42:44.196Z,24.77
2019-01-28T18:45:19.818Z,25.90
2019-01-28T18:47:50.542Z,26.33
2019-01-28T18:50:23.959Z,27.60
2019-01-28T18:52:54.529Z,27.87
2019-01-28T18:55:25.143Z,29.73
2019-01-28T18:57:55.656Z,29.27
2019-01-28T19:00:34.311Z,28.00
2019-01-28T19:03:05.496Z,36.97
2019-01-28T19:05:52.638Z,37.87
2019-01-28T19:08:39.764Z,37.70
2019-01-28T19:11:11.972Z,35.33
2019-01-28T19:13:44.045Z,34.00
2019-01-28T19:16:16.448Z,33.23
2019-01-28T19:18:48.618Z,31.77
2019-01-28T19:21:21.712Z,31.60
2019-01-28T19:23:55.477Z,30.77
2019-01-28T19:26:26.050Z,31.73
2019-01-28T19:28:56.559Z,30.33
2019-01-28T19:31:27.086Z,30.60
2019-01-28T19:33:57.807Z,30.43
2019-01-28T19:36:28.312Z,30.00
2019-01-28T19:38:58.805Z,29.90
2019-01-28T19:41:29.399Z,30.03
2019-01-28T19:43:59.963Z,30.60
2019-01-28T19:46:30.613Z,34.07
2019-01-28T19:49:01.143Z,32.63
2019-01-28T19:51:31.647Z,31.67
2019-01-28T19:54:02.233Z,30.57
2019-01-28T19:56:32.803Z,31.80
2019-01-28T19:59:03.331Z,33.80
2019-01-28T20:01:33.977Z,34.63
2019-01-28T20:04:04.657Z,32.97
2019-01-28T20:06:35.316Z,36.63
2019-01-28T20:09:08.557Z,36.43
2019-01-28T20:11:40.519Z,36.33
2019-01-28T20:14:11.108Z,35.73
2019-01-28T20:16:42.654Z,34.47
2019-01-28T20:19:13.292Z,35.90
2019-01-28T20:21:44.593Z,34.73
2019-01-28T20:24:15.130Z,35.20
2019-01-28T20:26:47.371Z,35.00
2019-01-28T20:29:18.200Z,33.67
2019-01-28T20:31:48.740Z,33.80
2019-01-28T20:34:19.349Z,34.90
2019-01-28T20:36:50.507Z,35.13
2019-01-28T20:39:21.021Z,39.47
2019-01-28T20:41:51.539Z,44.50
2019-01-28T20:44:22.056Z,49.17
2019-01-28T20:46:52.698Z,48.27
2019-01-28T20:49:23.358Z,48.60
2019-01-28T20:51:54.148Z,49.20
2019-01-28T20:54:24.820Z,50.07
2019-01-28T20:56:55.349Z,47.57
2019-01-28T20:59:26.363Z,44.00
2019-01-28T21:01:57.079Z,45.07
2019-01-28T21:04:27.798Z,40.73
2019-01-28T21:06:58.382Z,40.33
2019-01-28T21:09:29.013Z,36.13
2019-01-28T21:12:00.119Z,37.07
2019-01-28T21:14:30.698Z,36.60
2019-01-28T21:17:01.256Z,31.00
2019-01-28T21:19:33.607Z,32.33
2019-01-28T21:22:05.100Z,28.70
2019-01-28T21:24:35.754Z,31.00
2019-01-28T21:27:06.475Z,30.03
2019-01-28T21:29:36.995Z,32.70
2019-01-28T21:32:07.580Z,28.97
2019-01-28T21:34:38.522Z,31.07
2019-01-28T21:37:10.708Z,29.40
2019-01-28T21:39:41.161Z,30.20
2019-01-28T21:42:11.765Z,31.77
2019-01-28T21:44:42.522Z,31.13
2019-01-28T21:47:13.129Z,31.13
2019-01-28T21:49:43.797Z,31.97
2019-01-28T21:52:14.359Z,30.73
2019-01-28T21:54:45.000Z,29.73
2019-01-28T21:57:15.621Z,29.63
2019-01-28T21:59:46.134Z,27.77
2019-01-28T22:02:16.805Z,28.97
2019-01-28T22:04:47.315Z,27.73
2019-01-28T22:07:17.938Z,25.70
2019-01-28T22:09:48.444Z,28.57
2019-01-28T22:12:19.100Z,27.23
2019-01-28T22:14:49.525Z,27.80
2019-01-28T22:17:20.059Z,25.57
2019-01-28T22:19:50.677Z,27.13
2019-01-28T22:22:22.200Z,27.33
2019-01-28T22:24:52.825Z,25.50
2019-01-28T22:27:24.492Z,25.67
2019-01-28T22:29:55.065Z,26.17
2019-01-28T22:32:26.144Z,28.17
2019-01-28T22:34:56.798Z,26.90
2019-01-28T22:37:27.441Z,28.97
2019-01-28T22:39:57.992Z,29.23
2019-01-28T22:42:28.559Z,30.50
2019-01-28T22:44:59.778Z,30.00
2019-01-28T22:47:30.388Z,31.23
2019-01-28T22:50:01.041Z,30.27
2019-01-28T22:52:31.580Z,28.93
2019-01-28T22:55:02.033Z,29.93
2019-01-28T22:57:32.631Z,29.20
2019-01-28T23:00:03.523Z,28.73
2019-01-28T23:02:34.102Z,28.27
2019-01-28T23:05:05.682Z,28.77
2019-01-28T23:07:36.763Z,30.77
2019-01-28T23:10:07.948Z,28.07
2019-01-28T23:12:38.624Z,28.90
2019-01-28T23:15:11.340Z,27.30
2019-01-28T23:17:41.911Z,28.20
2019-01-28T23:20:12.489Z,27.50
2019-01-28T23:22:44.011Z,28.67
2019-01-28T23:25:14.531Z,29.63
2019-01-28T23:27:45.080Z,27.03
2019-01-28T23:30:16.154Z,28.70
2019-01-28T23:32:46.694Z,28.03
2019-01-28T23:35:17.305Z,27.97
2019-01-28T23:37:47.986Z,28.20
2019-01-28T23:40:18.670Z,28.83
2019-01-28T23:42:49.191Z,27.43
2019-01-28T23:45:19.923Z,28.67
2019-01-28T23:47:50.497Z,27.53
2019-01-28T23:50:20.998Z,26.10
2019-01-28T23:52:51.593Z,27.27
2019-01-28T23:55:22.098Z,29.03
2019-01-28T23:57:56.919Z,26.23
